Time;durP1;ratioP1;P1;durP2;ratioP2;P2;SDS_P1;SDS_P2;PMS_P1;PMS_P2;Temp;Humidity;BMP_temperature;BMP_pressure;BME280_temperature;BME280_humidity;BME280_pressure;Samples;Min_cycle;Max_cycle;Signal;HPM_P1;HPM_P2
2023/01/11 00:00:25;;;;;;;9.60;4.28;;;;;;;8.28;100.00;100586.94;5027706;28;20029;-55
2023/01/11 00:02:55;;;;;;;8.02;3.97;;;;;;;8.28;100.00;100581.66;5027577;28;20028;-58
2023/01/11 00:05:21;;;;;;;7.57;4.10;;;;;;;8.30;100.00;100577.06;5026722;28;20369;-55
2023/01/11 00:07:46;;;;;;;7.68;4.30;;;;;;;8.28;100.00;100579.00;5026821;28;20025;-55
2023/01/11 00:10:11;;;;;;;10.77;4.25;;;;;;;8.30;100.00;100577.06;5022146;28;20033;-59
2023/01/11 00:12:36;;;;;;;7.05;3.88;;;;;;;8.32;100.00;100575.09;5019560;28;20049;-55
2023/01/11 00:15:02;;;;;;;8.02;3.65;;;;;;;8.33;100.00;100576.75;5020762;28;20032;-57
2023/01/11 00:17:28;;;;;;;9.05;3.75;;;;;;;8.33;100.00;100571.47;5022418;28;20032;-56
2023/01/11 00:19:53;;;;;;;9.10;3.70;;;;;;;8.36;100.00;100565.88;5020581;28;20025;-56
2023/01/11 00:22:19;;;;;;;6.30;3.45;;;;;;;8.40;100.00;100566.41;5019444;28;20091;-56
2023/01/11 00:24:44;;;;;;;8.23;3.45;;;;;;;8.37;100.00;100567.53;5027939;28;20119;-56
2023/01/11 00:27:09;;;;;;;10.40;3.78;;;;;;;8.41;100.00;100568.06;5021132;28;20029;-56
2023/01/11 00:29:35;;;;;;;9.25;3.60;;;;;;;8.41;100.00;100571.53;5019227;28;20523;-56
2023/01/11 00:32:00;;;;;;;7.70;3.47;;;;;;;8.43;100.00;100566.09;5021448;28;20038;-55
2023/01/11 00:34:25;;;;;;;5.60;3.20;;;;;;;8.47;100.00;100559.50;5022581;28;20508;-56
2023/01/11 00:36:51;;;;;;;6.30;3.30;;;;;;;8.47;100.00;100557.72;5023468;28;20030;-56
2023/01/11 00:39:16;;;;;;;8.70;3.17;;;;;;;8.50;100.00;100553.09;5025123;28;20032;-55
2023/01/11 00:49:59;;;;;;;6.55;3.10;;;;;;;8.57;100.00;100540.94;5027625;28;20171;-54
2023/01/11 00:52:24;;;;;;;8.27;3.40;;;;;;;8.58;100.00;100547.88;5021122;28;20516;-56
2023/01/11 00:54:50;;;;;;;6.07;3.28;;;;;;;8.58;100.00;100548.72;5028709;28;20033;-56
2023/01/11 00:57:16;;;;;;;6.82;3.28;;;;;;;8.63;100.00;100548.25;5024091;28;20028;-55
2023/01/11 00:59:41;;;;;;;5.32;2.95;;;;;;;8.63;100.00;100547.44;5027579;28;20030;-55
2023/01/11 01:02:08;;;;;;;7.88;3.20;;;;;;;8.64;100.00;100534.06;5025893;28;20776;-57
2023/01/11 01:04:33;;;;;;;6.03;3.58;;;;;;;8.65;100.00;100546.28;5028218;28;20427;-56
2023/01/11 01:06:58;;;;;;;6.78;3.30;;;;;;;8.65;100.00;100537.53;5024525;28;20087;-55
2023/01/11 01:09:24;;;;;;;5.72;3.50;;;;;;;8.65;100.00;100538.38;5023752;28;20053;-54
2023/01/11 01:11:49;;;;;;;6.28;3.40;;;;;;;8.64;100.00;100538.50;5020069;28;20025;-56
2023/01/11 01:14:31;;;;;;;7.90;3.67;;;;;;;8.63;100.00;100535.03;5019338;28;20065;-58
2023/01/11 01:17:05;;;;;;;5.70;3.70;;;;;;;8.62;100.00;100536.03;5019317;28;20155;-56
2023/01/11 01:19:32;;;;;;;7.50;4.07;;;;;;;8.66;100.00;100544.47;5020522;28;20393;-56
2023/01/11 01:21:58;;;;;;;6.72;4.15;;;;;;;8.68;100.00;100531.94;5021720;28;20041;-54
2023/01/11 01:24:24;;;;;;;6.65;3.83;;;;;;;8.67;100.00;100546.97;5018453;28;20041;-58
2023/01/11 01:26:50;;;;;;;6.28;3.90;;;;;;;8.70;100.00;100541.38;5020761;28;20039;-54
2023/01/11 01:29:15;;;;;;;6.90;4.38;;;;;;;8.70;100.00;100545.81;5021194;28;20026;-56
2023/01/11 01:31:42;;;;;;;9.02;4.32;;;;;;;8.70;100.00;100545.81;5022912;28;20051;-56
2023/01/11 01:34:08;;;;;;;7.30;4.20;;;;;;;8.68;100.00;100538.03;5024700;28;20040;-57
2023/01/11 01:36:33;;;;;;;5.72;3.97;;;;;;;8.73;100.00;100541.03;5023820;28;20029;-56
2023/01/11 01:38:59;;;;;;;5.53;4.00;;;;;;;8.73;100.00;100540.19;5023791;28;20030;-56
2023/01/11 01:41:25;;;;;;;6.45;4.20;;;;;;;8.73;100.00;100535.75;5030695;28;20064;-57
2023/01/11 01:43:59;;;;;;;9.63;4.38;;;;;;;8.74;100.00;100542.69;5027246;28;20030;-57
2023/01/11 01:46:32;;;;;;;6.63;4.07;;;;;;;8.77;100.00;100546.03;5030594;28;20501;-55
2023/01/11 01:49:12;;;;;;;8.68;4.00;;;;;;;8.81;100.00;100547.34;5025575;28;20522;-56
2023/01/11 01:51:48;;;;;;;9.23;4.10;;;;;;;8.81;100.00;100536.78;5028547;28;20854;-56
2023/01/11 01:54:19;;;;;;;7.45;4.05;;;;;;;8.83;100.00;100534.81;5028636;28;20037;-55
2023/01/11 01:56:50;;;;;;;5.47;4.03;;;;;;;8.87;100.00;100538.78;5031519;28;20064;-56
2023/01/11 01:59:18;;;;;;;7.00;4.13;;;;;;;8.89;100.00;100534.19;5031790;28;20038;-56
2023/01/11 02:01:47;;;;;;;6.40;4.15;;;;;;;8.89;100.00;100539.47;5029993;28;20091;-56
2023/01/11 02:04:36;;;;;;;7.43;3.95;;;;;;;8.93;100.00;100540.81;5024425;28;20060;-56
2023/01/11 02:07:16;;;;;;;4.82;3.63;;;;;;;8.96;100.00;100535.22;5029758;28;20031;-56
2023/01/11 02:09:57;;;;;;;6.15;3.95;;;;;;;8.95;100.00;100533.56;5028412;28;20032;-56
2023/01/11 02:12:24;;;;;;;7.88;4.13;;;;;;;8.96;100.00;100535.22;5026513;28;20505;-57
2023/01/11 02:14:53;;;;;;;6.50;3.75;;;;;;;9.07;100.00;100535.94;5021141;28;20116;-56
2023/01/11 02:17:18;;;;;;;5.97;3.65;;;;;;;9.01;100.00;100538.22;5026841;28;20033;-56
2023/01/11 02:19:53;;;;;;;7.78;3.65;;;;;;;9.05;100.00;100537.88;5020729;28;20044;-56
2023/01/11 02:22:56;;;;;;;5.70;3.67;;;;;;;9.07;100.00;100551.81;5020845;28;20036;-57
2023/01/11 02:25:43;;;;;;;5.70;3.70;;;;;;;9.09;100.00;100539.22;5023078;28;20025;-56
2023/01/11 02:28:19;;;;;;;5.80;3.30;;;;;;;9.12;100.00;100538.91;5025141;28;20080;-55
2023/01/11 02:31:10;;;;;;;6.70;3.45;;;;;;;9.15;100.00;100533.31;5018731;28;20120;-57
2023/01/11 02:33:51;;;;;;;6.40;3.30;;;;;;;9.15;100.00;100528.84;5023861;28;20045;-56
2023/01/11 02:36:45;;;;;;;5.95;3.30;;;;;;;9.16;100.00;100527.03;5025245;28;20141;-56
2023/01/11 02:39:36;;;;;;;4.22;3.13;;;;;;;9.17;100.00;100520.75;5018860;28;20029;-56
2023/01/11 02:45:32;;;;;;;5.82;3.20;;;;;;;9.23;100.00;100514.81;5024011;28;20057;-56
2023/01/11 02:48:26;;;;;;;5.25;3.30;;;;;;;9.25;100.00;100520.78;5023904;28;20722;-55
2023/01/11 02:51:12;;;;;;;4.80;3.13;;;;;;;9.23;100.00;100517.44;4999472;28;20550;-56
2023/01/11 02:53:49;;;;;;;5.38;3.10;;;;;;;9.24;100.00;100511.16;5020799;28;20168;-56
2023/01/11 02:56:19;;;;;;;3.90;3.03;;;;;;;9.27;100.00;100520.59;5021047;28;20358;-55
2023/01/11 02:58:46;;;;;;;4.95;2.85;;;;;;;9.32;100.00;100512.19;5028161;28;20116;-58
2023/01/11 03:01:13;;;;;;;4.22;2.80;;;;;;;9.33;100.00;100524.44;5026146;28;20029;-53
2023/01/11 03:03:39;;;;;;;5.50;2.90;;;;;;;9.37;100.00;100515.19;5027046;28;20099;-56
2023/01/11 03:06:12;;;;;;;5.43;2.72;;;;;;;9.37;100.00;100509.91;5028342;28;20452;-56
2023/01/11 03:08:51;;;;;;;4.53;2.70;;;;;;;9.35;100.00;100506.56;5025722;28;20025;-55
2023/01/11 03:14:44;;;;;;;4.05;2.60;;;;;;;9.39;100.00;100500.78;5028559;28;20048;-60
2023/01/11 03:17:38;;;;;;;5.10;2.50;;;;;;;9.42;100.00;100507.56;5025870;28;20028;-56
2023/01/11 03:20:10;;;;;;;3.88;2.40;;;;;;;9.39;100.00;100505.28;5019203;28;20038;-55
2023/01/11 03:22:52;;;;;;;2.40;2.20;;;;;;;9.39;100.00;100505.28;5027011;28;20033;-56
2023/01/11 03:25:40;;;;;;;3.63;2.40;;;;;;;9.41;100.00;100506.75;5022404;28;20041;-56
2023/01/11 03:28:17;;;;;;;3.13;2.33;;;;;;;9.45;100.00;100512.56;5016317;28;20091;-57
2023/01/11 03:30:58;;;;;;;2.78;2.45;;;;;;;9.43;100.00;100503.97;5022712;28;20429;-53
2023/01/11 03:33:38;;;;;;;2.95;2.45;;;;;;;9.48;100.00;100506.13;5021052;28;20414;-54
2023/01/11 03:36:16;;;;;;;2.95;2.20;;;;;;;9.50;100.00;100515.56;5029340;28;20038;-56
2023/01/11 03:38:50;;;;;;;4.07;2.50;;;;;;;9.49;100.00;100508.59;5020701;28;20033;-56
2023/01/11 03:41:20;;;;;;;6.00;2.20;;;;;;;9.59;100.00;100512.91;5026656;28;20492;-58
2023/01/11 03:43:48;;;;;;;3.13;2.20;;;;;;;9.55;100.00;100513.25;5023227;28;20033;-56
2023/01/11 03:46:25;;;;;;;4.38;2.35;;;;;;;9.52;100.00;100502.97;5022425;28;20050;-59
2023/01/11 03:49:14;;;;;;;3.40;2.00;;;;;;;9.57;100.00;100509.59;5028614;28;20034;-55
2023/01/11 03:51:42;;;;;;;4.15;2.20;;;;;;;9.51;100.00;100501.31;5020783;28;20391;-55
2023/01/11 03:54:14;;;;;;;2.03;1.90;;;;;;;9.51;100.00;100509.25;5030406;28;20053;-56
2023/01/11 03:56:58;;;;;;;2.25;2.10;;;;;;;9.52;100.00;100502.97;5023905;28;20091;-57
2023/01/11 03:59:24;;;;;;;3.58;2.20;;;;;;;9.50;100.00;100509.41;5025623;28;20120;-56
2023/01/11 04:01:52;;;;;;;2.58;2.38;;;;;;;9.59;100.00;100520.84;5022432;28;20381;-56
2023/01/11 04:04:17;;;;;;;3.10;2.40;;;;;;;9.59;100.00;100513.75;5016180;28;20044;-57
2023/01/11 04:06:43;;;;;;;3.97;2.25;;;;;;;9.57;100.00;100521.00;5027305;28;20033;-57
2023/01/11 04:09:08;;;;;;;2.53;2.33;;;;;;;9.58;100.00;100511.25;5028851;28;20042;-56
2023/01/11 04:11:33;;;;;;;3.20;2.85;;;;;;;9.65;100.00;100517.56;5029457;28;20041;-56
2023/01/11 04:14:00;;;;;;;3.50;3.20;;;;;;;9.65;100.00;100512.25;5027850;28;20401;-56
2023/01/11 04:16:25;;;;;;;5.07;3.40;;;;;;;9.66;100.00;100519.19;5029216;28;20489;-57
2023/01/11 04:18:50;;;;;;;4.00;3.60;;;;;;;9.72;100.00;100529.13;5020206;28;20039;-56
2023/01/11 04:21:16;;;;;;;5.30;3.63;;;;;;;9.71;100.00;100527.50;5026375;28;20439;-55
2023/01/11 04:23:41;;;;;;;5.10;3.60;;;;;;;9.72;100.00;100534.44;5020082;28;20021;-54
2023/01/11 04:26:06;;;;;;;5.38;3.53;;;;;;;9.72;100.00;100529.13;5025152;28;20026;-59
2023/01/11 04:28:33;;;;;;;4.88;3.80;;;;;;;9.80;100.00;100526.53;5018063;28;20033;-56
2023/01/11 04:30:58;;;;;;;4.30;3.58;;;;;;;9.82;100.00;100524.53;5018529;28;20033;-57
2023/01/11 04:33:23;;;;;;;3.60;3.30;;;;;;;9.79;100.00;100538.09;5021522;28;20390;-58
2023/01/11 04:35:49;;;;;;;4.72;2.97;;;;;;;9.94;100.00;100538.28;5017633;28;20040;-57
2023/01/11 04:38:14;;;;;;;3.70;2.92;;;;;;;9.95;100.00;100539.09;5023457;28;20476;-55
2023/01/11 04:40:39;;;;;;;4.38;2.95;;;;;;;9.92;100.00;100534.97;5019323;28;20037;-58
2023/01/11 04:43:05;;;;;;;7.28;2.83;;;;;;;9.97;100.00;100545.09;5020658;28;20040;-56
2023/01/11 04:45:30;;;;;;;2.70;2.50;;;;;;;9.97;100.00;100553.03;5024024;28;20060;-56
2023/01/11 04:47:56;;;;;;;3.13;2.58;;;;;;;10.02;100.00;100555.16;5021522;28;20378;-57
2023/01/11 04:50:26;;;;;;;4.88;2.75;;;;;;;9.96;100.00;100551.34;5017866;28;20112;-56
2023/01/11 04:52:52;;;;;;;3.50;2.70;;;;;;;9.90;100.00;100547.53;5021231;28;20018;-56
2023/01/11 04:55:17;;;;;;;3.97;2.42;;;;;;;9.92;100.00;100556.16;5018050;28;20057;-56
2023/01/11 04:57:43;;;;;;;2.53;2.30;;;;;;;9.92;100.00;100555.34;5022151;28;20513;-56
2023/01/11 05:00:09;;;;;;;2.47;2.28;;;;;;;9.90;100.00;100559.94;5023679;28;20099;-56
2023/01/11 05:02:37;;;;;;;3.90;2.30;;;;;;;9.94;100.00;100553.34;5022988;28;20033;-56
2023/01/11 05:05:03;;;;;;;3.40;2.35;;;;;;;10.01;100.00;100551.69;5025679;28;20025;-56
2023/01/11 05:07:29;;;;;;;3.13;2.20;;;;;;;9.93;100.00;100543.75;5025265;28;20033;-54
2023/01/11 05:09:54;;;;;;;2.50;2.25;;;;;;;9.92;100.00;100550.03;5025907;28;20034;-56
2023/01/11 05:12:20;;;;;;;3.80;2.50;;;;;;;9.93;100.00;100559.63;5030680;28;20366;-56
2023/01/11 05:14:45;;;;;;;4.28;2.40;;;;;;;9.92;100.00;100558.78;5029090;28;20462;-56
2023/01/11 05:17:14;;;;;;;3.50;2.72;;;;;;;10.00;100.00;100559.78;5026974;28;20037;-56
2023/01/11 05:19:40;;;;;;;3.88;2.70;;;;;;;9.90;100.00;100558.13;5032037;28;20013;-54
2023/01/11 05:22:06;;;;;;;3.38;3.08;;;;;;;9.93;100.00;100567.59;5033938;28;20033;-59
2023/01/11 05:24:32;;;;;;;3.83;3.50;;;;;;;9.94;100.00;100579.81;5025140;28;20052;-55
2023/01/11 05:26:57;;;;;;;5.95;4.22;;;;;;;9.99;100.00;100572.22;5027382;28;20449;-55
2023/01/11 05:29:22;;;;;;;5.40;4.75;;;;;;;9.99;100.00;100577.53;5024927;28;20599;-53
2023/01/11 05:31:48;;;;;;;7.72;5.07;;;;;;;9.96;100.00;100578.69;5033475;28;20022;-58
2023/01/11 05:34:15;;;;;;;6.18;5.22;;;;;;;10.01;100.00;100586.13;5027175;28;20473;-54
2023/01/11 05:36:40;;;;;;;8.68;5.68;;;;;;;10.05;100.00;100582.16;5027815;28;20069;-55
2023/01/11 05:39:06;;;;;;;8.20;5.90;;;;;;;10.00;100.00;100579.16;5023511;28;20062;-53
2023/01/11 05:41:32;;;;;;;10.95;6.22;;;;;;;10.05;100.00;100590.09;5031673;28;20032;-59
2023/01/11 05:46:42;;;;;;;9.07;6.50;;;;;;;9.92;100.00;100587.13;5026487;28;20509;-55
2023/01/11 05:49:09;;;;;;;10.23;6.40;;;;;;;9.95;100.00;100581.47;5027241;28;20077;-56
2023/01/11 05:51:37;;;;;;;11.23;6.50;;;;;;;9.97;100.00;100587.47;5024888;28;20480;-57
2023/01/11 05:54:03;;;;;;;10.98;6.57;;;;;;;9.95;100.00;100592.91;5023335;28;20033;-54
2023/01/11 05:56:28;;;;;;;9.90;6.63;;;;;;;9.92;100.00;100587.13;5023816;28;20091;-56
2023/01/11 05:58:54;;;;;;;10.18;6.40;;;;;;;9.98;100.00;100599.72;5024341;28;20389;-56
2023/01/11 06:01:21;;;;;;;11.63;4.97;;;;;;;10.08;100.00;100592.41;5021718;28;20125;-56
2023/01/11 06:03:47;;;;;;;11.27;5.18;;;;;;;10.15;100.00;100607.66;5020757;28;20508;-55
2023/01/11 06:06:13;;;;;;;12.85;5.20;;;;;;;9.93;100.00;100617.91;5026715;28;20029;-56
2023/01/11 06:08:39;;;;;;;13.32;4.68;;;;;;;9.86;100.00;100612.41;5023188;28;20030;-55
2023/01/11 06:11:04;;;;;;;14.27;4.28;;;;;;;9.87;100.00;100613.25;5027201;28;20030;-54
2023/01/11 06:13:30;;;;;;;15.07;4.32;;;;;;;9.72;100.00;100613.88;5023118;28;20149;-55
2023/01/11 06:16:07;;;;;;;12.93;4.10;;;;;;;9.67;100.00;100613.56;5022630;28;20061;-57
2023/01/11 06:18:35;;;;;;;19.85;4.30;;;;;;;9.55;100.00;100627.06;5020833;28;20033;-55
2023/01/11 06:21:01;;;;;;;15.98;3.83;;;;;;;9.47;100.00;100631.50;5024608;28;20063;-55
2023/01/11 06:23:28;;;;;;;18.73;4.03;;;;;;;9.50;100.00;100637.31;5025068;28;20178;-54
2023/01/11 06:25:54;;;;;;;19.40;4.15;;;;;;;9.44;100.00;100640.59;5020920;28;20393;-56
2023/01/11 06:28:20;;;;;;;19.45;3.80;;;;;;;9.39;100.00;100634.94;5026326;28;20038;-56
2023/01/11 06:30:53;;;;;;;22.38;4.00;;;;;;;9.48;100.00;100633.16;5020044;28;20028;-56
2023/01/11 06:33:18;;;;;;;;;;;;;;;9.62;100.00;100648.44;5023754;28;20091;-56
2023/01/11 06:35:43;;;;;;;16.60;3.58;;;;;;;9.39;100.00;100634.94;5019329;28;20373;-54
2023/01/11 06:38:12;;;;;;;18.75;3.90;;;;;;;9.33;100.00;100657.56;5021488;28;20037;-56
2023/01/11 06:40:39;;;;;;;22.73;4.13;;;;;;;9.29;100.00;100678.22;5023948;28;20042;-55
2023/01/11 06:43:05;;;;;;;16.73;3.42;;;;;;;9.27;100.00;100664.31;5024295;28;20054;-55
2023/01/11 06:45:31;;;;;;;19.70;4.15;;;;;;;9.23;100.00;100670.91;5019302;28;20042;-55
2023/01/11 06:47:57;;;;;;;22.15;4.30;;;;;;;9.23;100.00;100657.69;5026007;28;20044;-55
2023/01/11 06:50:23;;;;;;;24.05;4.60;;;;;;;9.18;100.00;100670.53;5027357;28;20029;-55
2023/01/11 06:52:55;;;;;;;25.15;4.25;;;;;;;9.23;100.00;100702.66;5030054;28;20033;-55
2023/01/11 06:55:22;;;;;;;21.58;4.60;;;;;;;9.12;100.00;100702.91;5029221;28;20033;-57
2023/01/11 06:57:48;;;;;;;19.02;4.13;;;;;;;9.17;100.00;100711.22;5021723;28;20501;-56
2023/01/11 07:00:15;;;;;;;24.92;4.00;;;;;;;9.16;100.00;100698.97;5020445;28;20037;-58
2023/01/11 07:02:40;;;;;;;19.33;3.80;;;;;;;9.20;100.00;100700.34;5022236;28;21634;-54
2023/01/11 07:05:06;;;;;;;27.30;4.22;;;;;;;9.17;100.00;100705.94;5021106;28;20104;-56
2023/01/11 07:07:31;;;;;;;20.33;4.05;;;;;;;9.19;100.00;100698.69;5024345;28;20029;-58
2023/01/11 07:09:56;;;;;;;29.23;4.40;;;;;;;9.19;100.00;100693.41;5023829;28;20030;-56
2023/01/11 07:12:21;;;;;;;26.63;4.53;;;;;;;9.31;100.00;100706.38;5023881;28;20060;-56
2023/01/11 07:14:47;;;;;;;22.02;4.00;;;;;;;9.08;100.00;100717.47;5024473;28;20382;-56
2023/01/11 07:17:12;;;;;;;23.33;4.35;;;;;;;9.12;100.00;100714.34;5024778;28;20061;-56
2023/01/11 07:19:38;;;;;;;23.58;4.38;;;;;;;9.13;100.00;100726.56;5022044;28;20061;-56
2023/01/11 07:22:03;;;;;;;28.40;4.18;;;;;;;9.09;100.00;100740.28;5017387;28;20088;-55
2023/01/11 07:24:28;;;;;;;23.10;4.97;;;;;;;9.01;100.00;100741.88;5022139;28;20535;-55
2023/01/11 07:26:55;;;;;;;21.98;4.13;;;;;;;8.95;100.00;100739.84;5016596;28;20117;-58
2023/01/11 07:29:20;;;;;;;22.38;4.32;;;;;;;9.02;100.00;100745.34;5025136;28;20136;-60
2023/01/11 07:31:46;;;;;;;24.45;4.35;;;;;;;8.95;100.00;100744.28;5027930;28;20549;-56
2023/01/11 07:34:11;;;;;;;22.90;4.50;;;;;;;8.93;100.00;100740.97;5027893;28;20492;-56
2023/01/11 07:36:38;;;;;;;26.20;4.53;;;;;;;8.94;100.00;100740.81;5019324;28;20033;-56
2023/01/11 07:39:04;;;;;;;24.25;4.20;;;;;;;8.86;100.00;100753.97;5029478;28;20407;-56
2023/01/11 07:44:13;;;;;;;27.58;4.57;;;;;;;8.78;100.00;100759.19;5021532;28;20083;-56
2023/01/11 07:46:38;;;;;;;24.10;4.13;;;;;;;8.72;100.00;100768.56;5027257;28;20456;-56
2023/01/11 07:49:04;;;;;;;21.58;4.22;;;;;;;8.73;100.00;100768.41;5029371;28;20052;-55
2023/01/11 07:51:29;;;;;;;26.30;4.40;;;;;;;8.81;100.00;100780.03;5027459;28;20388;-55
2023/01/11 07:53:54;;;;;;;24.08;4.22;;;;;;;8.73;100.00;100794.84;5023579;28;20063;-55
2023/01/11 07:56:19;;;;;;;23.85;4.72;;;;;;;8.68;100.00;100801.59;5031303;28;20037;-56
2023/01/11 07:58:45;;;;;;;24.63;4.50;;;;;;;8.79;100.00;100797.88;5025932;28;20113;-55
2023/01/11 08:01:10;;;;;;;24.27;4.47;;;;;;;8.64;100.00;100797.56;5027343;28;20370;-55
2023/01/11 08:03:35;;;;;;;23.83;3.95;;;;;;;8.69;100.00;100797.94;5027242;28;20083;-55
2023/01/11 08:06:00;;;;;;;24.13;4.57;;;;;;;8.61;100.00;100801.34;5031280;28;20477;-56
2023/01/11 08:08:26;;;;;;;26.90;4.53;;;;;;;8.63;100.00;100801.19;5023351;28;20034;-55
2023/01/11 08:14:37;;;;;;;22.75;4.80;;;;;;;8.59;100.00;100809.41;5019329;28;20500;-58
2023/01/11 08:16:21;;;;;;;28.15;4.55;;;;;;;8.53;100.00;100817.13;5025773;28;20539;-56
2023/01/11 08:18:46;;;;;;;27.33;4.80;;;;;;;8.50;100.00;100826.16;5028979;28;20025;-56
2023/01/11 08:21:11;;;;;;;26.90;4.97;;;;;;;8.45;100.00;100844.25;5028790;28;20091;-55
2023/01/11 08:23:37;;;;;;;23.30;4.80;;;;;;;8.46;100.00;100845.91;5030454;28;20485;-56
2023/01/11 08:26:02;;;;;;;20.38;4.43;;;;;;;8.47;100.00;100853.69;5028095;28;20036;-55
2023/01/11 08:28:27;;;;;;;24.65;4.28;;;;;;;8.41;100.00;100864.84;5026185;28;20037;-57
2023/01/11 08:30:52;;;;;;;24.05;5.18;;;;;;;8.42;100.00;100871.81;5019478;28;20036;-56
2023/01/11 08:33:18;;;;;;;27.20;4.97;;;;;;;8.37;100.00;100874.03;5025275;28;20164;-56
2023/01/11 08:35:43;;;;;;;25.15;4.47;;;;;;;8.33;100.00;100873.50;5025108;28;20040;-56
2023/01/11 08:38:09;;;;;;;24.45;4.60;;;;;;;8.35;100.00;100876.00;5014519;28;20041;-57
2023/01/11 08:40:34;;;;;;;22.85;4.28;;;;;;;8.37;100.00;100879.34;5024372;28;20037;-56
2023/01/11 08:43:00;;;;;;;22.23;4.50;;;;;;;8.30;100.00;100884.34;5014841;28;20502;-55
2023/01/11 08:45:25;;;;;;;17.70;3.53;;;;;;;8.48;100.00;100884.44;5022308;28;20045;-55
2023/01/11 08:47:52;;;;;;;21.55;3.78;;;;;;;8.30;100.00;100899.38;5025449;28;20473;-54
2023/01/11 08:50:17;;;;;;;19.48;3.92;;;;;;;8.23;100.00;100888.56;5025882;28;20029;-56
2023/01/11 08:52:43;;;;;;;21.98;4.25;;;;;;;8.24;100.00;100894.69;5017901;28;20404;-55
2023/01/11 08:55:09;;;;;;;20.83;3.70;;;;;;;8.27;100.00;100902.31;5019568;28;20040;-54
2023/01/11 08:57:35;;;;;;;22.63;4.10;;;;;;;8.18;100.00;100902.22;5027264;28;20030;-55
2023/01/11 09:00:04;;;;;;;23.88;4.00;;;;;;;8.14;100.00;100913.22;5027069;28;20057;-54
2023/01/11 09:02:30;;;;;;;22.90;3.92;;;;;;;8.12;100.00;100923.91;5027198;28;20021;-56
2023/01/11 09:04:55;;;;;;;20.10;3.90;;;;;;;8.10;100.00;100925.88;5024911;28;20025;-55
2023/01/11 09:07:20;;;;;;;24.50;4.00;;;;;;;8.07;100.00;100932.28;5019519;28;20041;-56
2023/01/11 09:09:46;;;;;;;24.95;3.92;;;;;;;8.15;100.00;100939.47;5019539;28;20048;-55
2023/01/11 09:12:11;;;;;;;20.52;3.72;;;;;;;8.04;100.00;100942.28;5028778;28;20184;-56
2023/01/11 09:14:37;;;;;;;22.38;4.05;;;;;;;8.01;100.00;100927.56;5015128;28;20034;-55
2023/01/11 09:17:02;;;;;;;23.17;4.28;;;;;;;8.04;100.00;100931.72;5012266;28;20037;-55
2023/01/11 09:19:27;;;;;;;21.77;4.10;;;;;;;7.96;100.00;100928.94;5023212;28;20681;-55
2023/01/11 09:21:56;;;;;;;24.58;4.35;;;;;;;7.97;100.00;100930.59;5027149;28;20043;-55
2023/01/11 09:24:21;;;;;;;19.45;4.07;;;;;;;7.93;100.00;100938.84;5030722;28;20030;-55
2023/01/11 09:26:46;;;;;;;22.90;3.88;;;;;;;8.04;100.00;100948.38;5026635;28;20045;-54
2023/01/11 09:29:12;;;;;;;26.58;4.32;;;;;;;7.99;100.00;100944.53;5016353;28;20575;-56
2023/01/11 09:31:37;;;;;;;19.95;4.15;;;;;;;7.96;100.00;100948.28;5024851;28;20026;-56
2023/01/11 09:34:03;;;;;;;19.52;3.63;;;;;;;7.96;100.00;100950.06;5028748;28;20053;-55
2023/01/11 09:36:30;;;;;;;21.77;3.75;;;;;;;8.04;100.00;100955.50;5028769;28;20030;-59
2023/01/11 09:38:59;;;;;;;24.25;3.92;;;;;;;7.94;100.00;100956.34;5027588;28;20583;-56
2023/01/11 09:42:09;;;;;;;21.90;3.95;;;;;;;8.00;100.00;100962.84;5024433;28;20025;-56
2023/01/11 09:44:48;;;;;;;21.05;3.92;;;;;;;8.02;100.00;100960.06;5001204;28;20085;-54
2023/01/11 09:47:25;;;;;;;18.38;3.50;;;;;;;8.07;100.00;100963.13;5022615;28;20528;-56
2023/01/11 09:49:57;;;;;;;20.35;3.85;;;;;;;8.13;100.00;100964.34;5027006;28;20028;-55
2023/01/11 09:52:31;;;;;;;21.48;3.67;;;;;;;8.12;100.00;100971.47;5026855;28;20032;-53
2023/01/11 09:54:58;;;;;;;25.98;3.92;;;;;;;8.08;100.00;100980.63;5020143;28;20483;-55
2023/01/11 09:57:44;;;;;;;24.52;4.60;;;;;;;8.08;100.00;100978.00;5029892;28;20401;-56
2023/01/11 10:00:20;;;;;;;20.55;4.10;;;;;;;8.21;100.00;100986.44;5025214;28;20087;-56
2023/01/11 10:03:14;;;;;;;21.70;3.80;;;;;;;8.19;100.00;100980.47;5032676;28;20033;-56
2023/01/11 10:06:00;;;;;;;22.15;4.18;;;;;;;8.31;100.00;100985.59;5027513;28;20428;-55
2023/01/11 10:08:54;;;;;;;22.20;4.07;;;;;;;8.37;100.00;100985.03;5022581;28;20044;-54
2023/01/11 10:11:56;;;;;;;22.95;3.92;;;;;;;8.41;100.00;100991.69;5026752;28;20029;-56
2023/01/11 10:14:51;;;;;;;21.90;4.40;;;;;;;8.43;100.00;100984.44;5024013;28;20043;-53
2023/01/11 10:17:35;;;;;;;21.70;4.00;;;;;;;8.46;100.00;100984.19;5020660;28;20026;-53
2023/01/11 10:20:10;;;;;;;23.27;4.32;;;;;;;8.44;100.00;100985.31;5021849;28;20042;-55
2023/01/11 10:22:40;;;;;;;24.05;4.07;;;;;;;8.48;100.00;100992.78;5028365;28;20021;-55
2023/01/11 10:25:14;;;;;;;25.23;4.60;;;;;;;8.59;100.00;100988.34;5025853;28;20040;-55
2023/01/11 10:27:52;;;;;;;18.83;4.25;;;;;;;8.59;100.00;100978.59;5025982;28;20029;-57
2023/01/11 10:30:51;;;;;;;21.85;4.28;;;;;;;8.57;99.17;100979.69;5032656;28;20596;-56
2023/01/11 10:33:41;;;;;;;20.65;4.05;;;;;;;8.59;99.71;100975.13;5032917;28;20021;-55
2023/01/11 10:41:28;;;;;;;20.08;4.45;;;;;;;8.69;97.95;100989.13;5024015;28;20154;-56
2023/01/11 10:44:17;;;;;;;19.65;4.63;;;;;;;8.80;97.96;100995.19;5021791;28;20029;-57
2023/01/11 10:46:48;;;;;;;24.90;4.80;;;;;;;8.66;97.97;100992.06;5030446;28;20049;-56
2023/01/11 10:49:24;;;;;;;20.58;4.40;;;;;;;8.75;99.50;100988.53;5027727;28;20045;-59
2023/01/11 10:51:54;;;;;;;24.20;4.35;;;;;;;8.78;97.53;100983.94;5026888;28;20041;-59
2023/01/11 10:54:26;;;;;;;23.73;4.03;;;;;;;8.81;96.36;100988.94;5029621;28;20373;-56
2023/01/11 10:57:14;;;;;;;21.83;4.00;;;;;;;8.82;96.47;100998.53;5024760;28;20022;-54
2023/01/11 11:00:09;;;;;;;19.40;4.47;;;;;;;8.91;94.85;100987.09;5020115;28;20045;-59
2023/01/11 11:03:12;;;;;;;18.35;4.20;;;;;;;8.83;96.38;100989.63;4990519;28;20085;-56
2023/01/11 11:05:50;;;;;;;16.50;3.97;;;;;;;8.90;96.01;100990.72;5021583;28;20030;-57
2023/01/11 11:08:25;;;;;;;21.90;4.20;;;;;;;8.84;95.56;100996.59;5021862;28;20034;-59
2023/01/11 11:11:07;;;;;;;25.35;4.00;;;;;;;8.96;95.41;101000.69;5021948;28;20633;-57
2023/01/11 11:13:54;;;;;;;20.83;4.00;;;;;;;9.14;92.89;100997.28;5020388;28;20564;-57
2023/01/11 11:16:22;;;;;;;22.88;4.32;;;;;;;9.02;91.36;101000.13;5022960;28;20476;-57
2023/01/11 11:18:53;;;;;;;20.45;3.97;;;;;;;9.05;91.22;101006.09;5021771;28;20875;-56
2023/01/11 11:21:22;;;;;;;23.00;4.30;;;;;;;8.99;92.49;101005.69;5021278;28;20121;-56
2023/01/11 11:23:53;;;;;;;24.73;4.45;;;;;;;9.09;91.32;101002.97;5021266;28;20558;-57
2023/01/11 11:26:20;;;;;;;25.60;4.78;;;;;;;9.07;89.56;100998.84;5020816;28;20064;-57
2023/01/11 11:29:01;;;;;;;29.23;5.03;;;;;;;9.10;91.34;100990.59;5019562;28;20041;-57
2023/01/11 11:31:29;;;;;;;21.83;4.35;;;;;;;9.10;89.41;100990.59;5019938;28;20087;-57
2023/01/11 11:33:55;;;;;;;20.02;4.45;;;;;;;9.06;89.72;100999.81;5020910;28;20115;-58
2023/01/11 11:36:21;;;;;;;17.65;4.20;;;;;;;9.06;90.68;101010.38;5021165;28;20140;-57
2023/01/11 11:39:19;;;;;;;22.35;4.70;;;;;;;9.19;90.20;101005.59;5021021;28;20390;-56
2023/01/11 11:41:47;;;;;;;20.73;4.72;;;;;;;9.04;90.12;101002.63;5013838;28;20066;-56
2023/01/11 11:44:27;;;;;;;20.48;4.20;;;;;;;9.18;89.92;101025.06;5021509;28;20034;-57
2023/01/11 11:47:00;;;;;;;19.60;4.40;;;;;;;9.22;89.80;101015.06;5020590;28;20468;-57
2023/01/11 11:49:28;;;;;;;19.60;3.92;;;;;;;9.34;86.30;101013.03;5020972;28;20155;-57
2023/01/11 11:51:54;;;;;;;22.65;4.60;;;;;;;9.31;87.54;101018.63;5019850;28;20040;-60
2023/01/11 11:54:24;;;;;;;20.83;4.47;;;;;;;9.28;87.70;101015.28;5021242;28;20461;-57
2023/01/11 11:56:50;;;;;;;22.10;4.60;;;;;;;9.41;87.15;101027.31;5019553;28;20030;-56
2023/01/11 11:59:21;;;;;;;21.08;4.25;;;;;;;9.42;87.62;101031.63;5020478;28;20083;-58
2023/01/11 12:01:55;;;;;;;27.80;5.05;;;;;;;9.40;86.53;101026.50;5018544;28;20025;-57
2023/01/11 12:04:32;;;;;;;22.05;4.57;;;;;;;9.53;86.25;101014.72;5020413;28;20030;-57